KSNY/SNY METAR and TAF weather

Enter ICAO airport designator
Station Type Date Time Source
KSNY METAR 2021/05/14 12:53 UTC NOAA

KSNY 141253Z AUTO 31004KT 6SM BR CLR 08/07 A3011 RMK AO2 SLP171 T00780072


Station Type Date Time Source
KSNY Decoded METAR 2021/05/14 12:53 UTC NOAA

SIDNEY MUNICIPAL AIRPORT, NE, United States (KSNY) 41-06N 102-59W 1307M
May 14, 2021 - 08:53 AM EDT / 2021.05.14 1253 UTC
Wind: from the NW (310 degrees) at 5 MPH (4 KT):0
Visibility: 6 mile(s):0
Sky conditions: clear
Weather: mist
Temperature: 46.0 F (7.8 C)
Dew Point: 45.0 F (7.2 C)
Relative Humidity: 95%
Pressure (altimeter): 30.11 in. Hg (1019 hPa)
ob: KSNY 141253Z AUTO 31004KT 6SM BR CLR 08/07 A3011 RMK AO2 SLP171 T00780072
cycle: 13

Station Type Date Time Source
KSNY TAF 2021/05/14 12:36 UTC NOAA

TAF KSNY 141129Z 1412/1512 34006KT 4SM BR SCT080
TEMPO 1412/1413 2SM BR SCT002
FM141300 35006KT 6SM BR BKN080
FM141700 07010KT P6SM BKN070
FM142100 11012G24KT P6SM VCTS BKN070CB
FM150100 10010KT P6SM VCSH BKN050
FM150600 33005KT 6SM BR BKN025

Example: see airport list